createdAt,value
2018-05-03T00:00:16.864Z,10.80
2018-05-03T00:02:44.291Z,10.70
2018-05-03T00:05:12.520Z,10.60
2018-05-03T00:07:39.951Z,10.60
2018-05-03T00:10:07.393Z,10.60
2018-05-03T00:12:35.594Z,10.40
2018-05-03T00:15:03.023Z,10.40
2018-05-03T00:17:30.467Z,10.40
2018-05-03T00:19:58.667Z,10.40
2018-05-03T00:22:26.096Z,10.40
2018-05-03T00:24:54.310Z,10.30
2018-05-03T00:27:21.742Z,10.20
2018-05-03T00:29:49.954Z,10.20
2018-05-03T00:32:17.395Z,10.20
2018-05-03T00:34:44.863Z,10.20
2018-05-03T00:37:12.327Z,10.10
2018-05-03T00:39:39.806Z,10.10
2018-05-03T00:42:07.241Z,10.00
2018-05-03T00:44:34.690Z,10.00
2018-05-03T00:47:02.124Z,9.90
2018-05-03T00:49:29.557Z,9.90
2018-05-03T00:51:57.062Z,9.90
2018-05-03T00:54:36.499Z,9.80
2018-05-03T00:57:03.970Z,9.80
2018-05-03T00:59:31.420Z,9.80
2018-05-03T01:01:58.863Z,9.70
2018-05-03T01:04:26.331Z,9.70
2018-05-03T01:06:53.760Z,9.70
2018-05-03T01:09:21.199Z,9.60
2018-05-03T01:11:49.421Z,9.50
2018-05-03T01:14:16.847Z,9.50
2018-05-03T01:16:45.071Z,9.40
2018-05-03T01:19:12.635Z,9.40
2018-05-03T01:21:40.165Z,9.40
2018-05-03T01:24:07.626Z,9.40
2018-05-03T01:26:35.071Z,9.30
2018-05-03T01:29:02.558Z,9.30
2018-05-03T01:31:30.143Z,9.30
2018-05-03T01:33:57.571Z,9.30
2018-05-03T01:36:31.871Z,9.20
2018-05-03T01:38:59.339Z,9.20
2018-05-03T01:41:26.768Z,9.20
2018-05-03T01:43:54.216Z,9.20
2018-05-03T01:46:22.420Z,9.10
2018-05-03T01:48:49.849Z,9.10
2018-05-03T01:51:17.343Z,9.10
2018-05-03T01:53:44.767Z,9.00
2018-05-03T01:56:13.027Z,9.00
2018-05-03T01:58:41.232Z,8.90
2018-05-03T02:01:08.703Z,8.90
2018-05-03T02:03:36.145Z,8.90
2018-05-03T02:06:03.943Z,8.90
2018-05-03T02:08:31.374Z,8.80
2018-05-03T02:10:58.843Z,8.80
2018-05-03T02:13:26.395Z,8.70
2018-05-03T02:15:53.823Z,8.70
2018-05-03T02:18:22.002Z,8.70
2018-05-03T02:20:49.487Z,8.60
2018-05-03T02:23:16.918Z,8.60
2018-05-03T02:25:45.404Z,8.60
2018-05-03T02:28:13.702Z,8.60
2018-05-03T02:30:41.131Z,8.50
2018-05-03T02:33:08.618Z,8.50
2018-05-03T02:35:36.067Z,8.50
2018-05-03T02:38:03.534Z,8.40
2018-05-03T02:40:31.005Z,8.40
2018-05-03T02:42:58.444Z,8.40
2018-05-03T02:45:25.907Z,8.40
2018-05-03T02:47:53.340Z,8.40
2018-05-03T02:50:20.785Z,8.30
2018-05-03T02:52:48.966Z,8.30
2018-05-03T02:55:17.340Z,8.30
2018-05-03T02:58:16.303Z,8.20
2018-05-03T03:01:15.592Z,8.20
2018-05-03T03:04:00.790Z,8.20
2018-05-03T03:06:45.927Z,8.20
2018-05-03T03:13:27.691Z,8.10
2018-05-03T03:16:13.363Z,8.10
2018-05-03T03:18:58.709Z,8.00
2018-05-03T03:21:43.951Z,8.10
2018-05-03T03:24:29.168Z,8.00
2018-05-03T03:27:14.415Z,8.00
2018-05-03T03:29:53.859Z,8.00
2018-05-03T03:32:33.411Z,8.00
2018-05-03T03:35:06.897Z,7.90
2018-05-03T03:37:46.184Z,7.90
2018-05-03T03:40:26.428Z,7.90
2018-05-03T03:43:14.672Z,7.80
2018-05-03T03:45:42.194Z,7.80
2018-05-03T03:48:09.629Z,7.80
2018-05-03T03:50:37.075Z,7.80
2018-05-03T03:53:05.264Z,7.70
2018-05-03T03:55:32.690Z,7.70
2018-05-03T03:58:00.921Z,7.70
2018-05-03T04:00:28.366Z,7.60
2018-05-03T04:02:55.794Z,7.60
2018-05-03T04:05:23.244Z,7.70
2018-05-03T04:07:51.459Z,7.60
2018-05-03T04:10:18.907Z,7.60
2018-05-03T04:12:46.343Z,7.60
2018-05-03T04:15:13.781Z,7.60
2018-05-03T04:17:53.983Z,7.50
2018-05-03T04:20:40.089Z,7.50
2018-05-03T04:23:21.244Z,7.60
2018-05-03T04:26:00.667Z,7.50
2018-05-03T04:28:28.158Z,7.50
2018-05-03T04:30:55.606Z,7.50
2018-05-03T04:33:23.031Z,7.50
2018-05-03T04:35:51.249Z,7.50
2018-05-03T04:38:18.700Z,7.40
2018-05-03T04:40:46.135Z,7.50
2018-05-03T04:43:13.567Z,7.50
2018-05-03T04:45:41.797Z,7.50
2018-05-03T04:48:09.252Z,7.50
2018-05-03T04:50:36.683Z,7.50
2018-05-03T04:53:04.175Z,7.50
2018-05-03T04:55:31.587Z,7.50
2018-05-03T04:57:59.030Z,7.50
2018-05-03T05:00:27.219Z,7.60
2018-05-03T05:02:54.650Z,7.50
2018-05-03T05:05:22.168Z,7.60
2018-05-03T05:07:49.614Z,7.60
2018-05-03T05:10:17.045Z,7.70
2018-05-03T05:12:44.543Z,7.70
2018-05-03T05:15:11.967Z,7.70
2018-05-03T05:17:39.439Z,7.80
2018-05-03T05:20:07.628Z,7.90
2018-05-03T05:22:35.055Z,7.80
2018-05-03T05:25:02.493Z,7.90
2018-05-03T05:27:30.706Z,8.00
2018-05-03T05:29:58.172Z,8.00
2018-05-03T05:32:25.587Z,8.10
2018-05-03T05:34:53.791Z,8.30
2018-05-03T05:37:21.211Z,8.30
2018-05-03T05:39:50.343Z,8.50
2018-05-03T05:42:17.783Z,8.50
2018-05-03T05:44:45.262Z,8.60
2018-05-03T05:47:13.748Z,8.70
2018-05-03T05:49:41.228Z,8.80
2018-05-03T05:52:08.655Z,8.90
2018-05-03T05:54:38.038Z,9.00
2018-05-03T05:57:05.523Z,9.10
2018-05-03T05:59:32.999Z,9.20
2018-05-03T06:02:00.433Z,9.30
2018-05-03T06:04:27.870Z,9.40
2018-05-03T06:06:55.310Z,9.50
2018-05-03T06:09:23.522Z,9.70
2018-05-03T06:14:14.448Z,9.90
2018-05-03T06:16:41.904Z,9.80
2018-05-03T06:19:09.337Z,10.00
2018-05-03T06:21:36.823Z,10.10
2018-05-03T06:24:04.271Z,10.10
2018-05-03T06:26:31.708Z,10.20
2018-05-03T06:28:59.195Z,10.30
2018-05-03T06:31:26.639Z,10.40
2018-05-03T06:33:54.103Z,10.50
2018-05-03T06:36:21.563Z,10.60
2018-05-03T06:38:49.059Z,10.60
2018-05-03T06:41:16.453Z,10.70
2018-05-03T06:43:43.920Z,10.80
2018-05-03T06:46:11.342Z,10.90
2018-05-03T06:48:39.546Z,11.10
2018-05-03T06:51:07.031Z,11.00
2018-05-03T06:53:34.479Z,11.20
2018-05-03T06:56:01.951Z,11.30
2018-05-03T06:58:29.597Z,11.30
2018-05-03T07:00:57.067Z,11.40
2018-05-03T07:03:24.501Z,11.50
2018-05-03T07:05:51.943Z,11.60
2018-05-03T07:08:19.425Z,11.70
2018-05-03T07:10:46.883Z,11.80
2018-05-03T07:13:14.331Z,11.80
2018-05-03T07:15:41.757Z,11.80
2018-05-03T07:18:09.974Z,12.00
2018-05-03T07:20:37.422Z,12.00
2018-05-03T07:23:04.887Z,12.10
2018-05-03T07:25:32.321Z,12.10
2018-05-03T07:27:59.808Z,12.20
2018-05-03T07:30:27.250Z,12.30
2018-05-03T07:32:54.674Z,12.40
2018-05-03T07:35:22.926Z,12.60
2018-05-03T07:37:50.356Z,12.60
2018-05-03T07:40:17.792Z,12.70
2018-05-03T07:42:45.243Z,12.70
2018-05-03T07:45:12.675Z,12.80
2018-05-03T07:47:40.872Z,12.90
2018-05-03T07:50:08.363Z,12.90
2018-05-03T07:52:35.799Z,12.90
2018-05-03T07:55:03.365Z,13.00
2018-05-03T07:57:30.807Z,13.00
2018-05-03T07:59:58.288Z,13.00
2018-05-03T08:02:25.711Z,13.10
2018-05-03T08:04:53.156Z,13.20
2018-05-03T08:07:21.357Z,13.30
2018-05-03T08:09:48.783Z,13.30
2018-05-03T08:12:17.003Z,13.40
2018-05-03T08:14:44.440Z,13.40
2018-05-03T08:17:11.871Z,13.50
2018-05-03T08:19:40.071Z,13.70
2018-05-03T08:22:07.571Z,13.70
2018-05-03T08:24:35.007Z,13.80
2018-05-03T08:27:02.453Z,13.80
2018-05-03T08:29:29.940Z,13.80
2018-05-03T08:31:57.372Z,13.90
2018-05-03T08:34:24.831Z,14.00
2018-05-03T08:36:52.278Z,14.10
2018-05-03T08:39:19.695Z,14.10
2018-05-03T08:41:47.927Z,14.20
2018-05-03T08:44:15.382Z,14.20
2018-05-03T08:46:42.903Z,14.30
2018-05-03T08:49:11.217Z,14.40
2018-05-03T08:51:38.679Z,14.40
2018-05-03T08:54:06.109Z,14.60
2018-05-03T08:56:33.582Z,14.70
2018-05-03T08:59:01.045Z,14.80
2018-05-03T09:01:28.521Z,14.80
2018-05-03T09:03:55.966Z,14.90
2018-05-03T09:06:23.386Z,15.00
2018-05-03T09:08:50.871Z,14.90
2018-05-03T09:11:18.310Z,14.80
2018-05-03T09:13:45.745Z,14.80
2018-05-03T09:16:13.953Z,15.00
2018-05-03T09:18:41.387Z,15.00
2018-05-03T09:21:08.849Z,15.10
2018-05-03T09:23:36.287Z,15.20
2018-05-03T09:26:03.769Z,15.10
2018-05-03T09:28:31.244Z,15.10
2018-05-03T09:30:58.716Z,15.20
2018-05-03T09:33:26.162Z,15.20
2018-05-03T09:35:53.702Z,15.40
2018-05-03T09:38:21.145Z,15.50
2018-05-03T09:40:48.592Z,15.60
2018-05-03T09:43:16.080Z,15.70
2018-05-03T09:45:43.542Z,15.80
2018-05-03T09:48:10.979Z,15.80
2018-05-03T09:50:38.400Z,15.90
2018-05-03T09:53:05.855Z,16.00
2018-05-03T09:55:33.297Z,16.00
2018-05-03T09:58:01.504Z,16.00
2018-05-03T10:00:29.015Z,15.90
2018-05-03T10:02:58.153Z,16.00
2018-05-03T10:05:26.375Z,16.10
2018-05-03T10:07:53.810Z,16.10
2018-05-03T10:10:22.024Z,16.20
2018-05-03T10:12:49.476Z,16.20
2018-05-03T10:15:16.903Z,16.40
2018-05-03T10:17:45.111Z,16.50
2018-05-03T10:20:12.568Z,16.50
2018-05-03T10:22:40.053Z,16.60
2018-05-03T10:25:08.201Z,16.70
2018-05-03T10:27:35.674Z,16.70
2018-05-03T10:30:03.263Z,16.80
2018-05-03T10:32:30.690Z,16.90
2018-05-03T10:34:58.129Z,16.90
2018-05-03T10:37:25.608Z,16.90
2018-05-03T10:39:53.060Z,17.00
2018-05-03T10:42:20.579Z,17.10
2018-05-03T10:44:47.982Z,17.20
2018-05-03T10:47:15.435Z,17.30
2018-05-03T10:49:42.887Z,17.40
2018-05-03T10:52:10.319Z,17.50
2018-05-03T10:54:37.791Z,17.70
2018-05-03T10:57:06.081Z,17.70
2018-05-03T10:59:33.539Z,17.70
2018-05-03T11:02:01.007Z,17.80
2018-05-03T11:04:28.448Z,18.00
2018-05-03T11:06:55.876Z,18.00
2018-05-03T11:09:23.326Z,18.20
2018-05-03T11:11:51.541Z,18.40
2018-05-03T11:14:18.967Z,18.40
2018-05-03T11:16:46.421Z,18.50
2018-05-03T11:19:14.640Z,18.60
2018-05-03T11:21:42.063Z,18.60
2018-05-03T11:24:09.548Z,18.70
2018-05-03T11:26:36.972Z,18.80
2018-05-03T11:29:04.402Z,18.60
2018-05-03T11:31:32.645Z,18.10
2018-05-03T11:34:00.048Z,18.10
2018-05-03T11:36:28.255Z,17.60
2018-05-03T11:38:55.707Z,17.60
2018-05-03T11:41:23.374Z,17.50
2018-05-03T11:43:50.801Z,17.40
2018-05-03T11:46:18.249Z,17.30
2018-05-03T11:48:46.487Z,17.10
2018-05-03T11:51:13.902Z,17.00
2018-05-03T11:53:41.336Z,16.90
2018-05-03T11:56:09.551Z,16.60
2018-05-03T11:58:36.994Z,16.60
2018-05-03T12:01:04.430Z,16.90
2018-05-03T12:03:32.628Z,17.90
2018-05-03T12:06:00.107Z,17.90
2018-05-03T12:08:28.270Z,18.30
2018-05-03T12:10:55.704Z,18.30
2018-05-03T12:13:23.176Z,18.20
2018-05-03T12:15:50.635Z,17.90
2018-05-03T12:18:18.078Z,17.70
2018-05-03T12:20:46.286Z,17.50
2018-05-03T12:23:13.720Z,17.50
2018-05-03T12:25:41.196Z,17.40
2018-05-03T12:28:08.667Z,17.60
2018-05-03T12:30:36.213Z,17.60
2018-05-03T12:33:03.688Z,17.60
2018-05-03T12:35:31.172Z,17.50
2018-05-03T12:37:58.623Z,17.50
2018-05-03T12:40:26.138Z,17.50
2018-05-03T12:42:53.590Z,17.50
2018-05-03T12:45:21.075Z,17.40
2018-05-03T12:47:48.515Z,17.30
2018-05-03T12:50:15.944Z,17.30
2018-05-03T12:52:43.435Z,17.30
2018-05-03T12:55:10.895Z,17.30
2018-05-03T12:57:38.345Z,17.30
2018-05-03T13:00:05.779Z,17.20
2018-05-03T13:02:33.252Z,17.10
2018-05-03T13:05:00.710Z,17.10
2018-05-03T13:07:28.166Z,17.20
2018-05-03T13:09:55.607Z,17.50
2018-05-03T13:12:23.030Z,17.50
2018-05-03T13:14:51.267Z,17.40
2018-05-03T13:17:18.708Z,17.40
2018-05-03T13:19:46.133Z,17.40
2018-05-03T13:22:14.345Z,17.50
2018-05-03T13:24:41.818Z,17.50
2018-05-03T13:27:09.252Z,17.50
2018-05-03T13:29:36.724Z,17.60
2018-05-03T13:32:04.215Z,18.00
2018-05-03T13:34:31.647Z,17.90
2018-05-03T13:36:59.082Z,17.60
2018-05-03T13:39:26.609Z,17.50
2018-05-03T13:41:54.088Z,17.40
2018-05-03T13:44:21.511Z,17.40
2018-05-03T13:46:48.997Z,17.30
2018-05-03T13:49:16.543Z,17.20
2018-05-03T13:51:43.981Z,17.30
2018-05-03T13:54:11.439Z,17.50
2018-05-03T13:56:38.876Z,17.60
2018-05-03T13:59:06.371Z,17.60
2018-05-03T14:01:33.812Z,17.70
2018-05-03T14:04:01.235Z,17.90
2018-05-03T14:06:29.576Z,18.40
2018-05-03T14:08:56.971Z,18.30
2018-05-03T14:11:25.195Z,18.70
2018-05-03T14:13:52.639Z,18.70
2018-05-03T14:16:20.104Z,18.70
2018-05-03T14:18:47.554Z,19.00
2018-05-03T14:21:14.984Z,19.30
2018-05-03T14:23:42.421Z,19.50
2018-05-03T14:26:10.617Z,20.00
2018-05-03T14:28:38.104Z,19.90
2018-05-03T14:31:05.555Z,20.20
2018-05-03T14:33:33.026Z,20.30
2018-05-03T14:36:00.475Z,20.40
2018-05-03T14:38:27.910Z,20.60
2018-05-03T14:40:55.339Z,20.60
2018-05-03T14:43:23.577Z,19.60
2018-05-03T14:45:51.021Z,19.60
2018-05-03T14:48:18.468Z,19.30
2018-05-03T14:50:45.935Z,19.00
2018-05-03T14:53:13.460Z,19.00
2018-05-03T14:55:41.658Z,19.30
2018-05-03T14:58:09.099Z,19.30
2018-05-03T15:00:36.651Z,19.90
2018-05-03T15:03:04.875Z,21.00
2018-05-03T15:05:32.325Z,21.00
2018-05-03T15:07:59.771Z,21.40
2018-05-03T15:10:27.248Z,21.70
2018-05-03T15:12:54.679Z,21.80
2018-05-03T15:15:22.151Z,22.00
2018-05-03T15:17:49.595Z,22.50
2018-05-03T15:20:17.035Z,22.70
2018-05-03T15:22:44.468Z,22.60
2018-05-03T15:25:12.677Z,22.90
2018-05-03T15:27:40.139Z,22.90
2018-05-03T15:30:07.562Z,23.10
2018-05-03T15:32:35.783Z,23.30
2018-05-03T15:35:03.235Z,23.30
2018-05-03T15:37:30.667Z,23.10
2018-05-03T15:39:58.102Z,23.10
2018-05-03T15:42:26.325Z,22.90
2018-05-03T15:44:53.755Z,22.90
2018-05-03T15:47:21.187Z,23.10
2018-05-03T15:49:49.441Z,23.70
2018-05-03T15:52:17.640Z,23.70
2018-05-03T15:54:46.156Z,23.80
2018-05-03T15:57:13.630Z,23.80
2018-05-03T15:59:41.082Z,24.10
2018-05-03T16:02:08.546Z,24.70
2018-05-03T16:04:35.986Z,24.50
2018-05-03T16:07:03.447Z,24.60
2018-05-03T16:09:30.901Z,24.50
2018-05-03T16:11:58.338Z,24.50
2018-05-03T16:14:25.765Z,24.70
2018-05-03T16:16:53.291Z,24.90
2018-05-03T16:19:20.743Z,25.30
2018-05-03T16:21:48.189Z,25.30
2018-05-03T16:24:15.695Z,25.20
2018-05-03T16:26:44.659Z,25.00
2018-05-03T16:29:12.111Z,25.00
2018-05-03T16:31:39.575Z,24.40
2018-05-03T16:34:07.008Z,23.20
2018-05-03T16:36:34.443Z,22.20
2018-05-03T16:39:01.944Z,21.10
2018-05-03T16:41:29.383Z,20.30
2018-05-03T16:43:56.816Z,19.80
2018-05-03T16:46:24.262Z,19.60
2018-05-03T16:48:52.492Z,18.90
2018-05-03T16:51:19.933Z,18.90
2018-05-03T16:53:47.371Z,18.50
2018-05-03T16:56:14.805Z,18.30
2018-05-03T16:58:43.011Z,17.80
2018-05-03T17:01:10.505Z,17.80
2018-05-03T17:03:37.967Z,17.60
2018-05-03T17:06:05.396Z,17.40
2018-05-03T17:08:32.850Z,17.30
2018-05-03T17:11:00.347Z,17.10
2018-05-03T17:13:27.783Z,16.90
2018-05-03T17:15:55.221Z,16.90
2018-05-03T17:18:22.683Z,16.90
2018-05-03T17:20:50.172Z,16.80
2018-05-03T17:23:17.587Z,16.70
2018-05-03T17:25:45.036Z,16.60
2018-05-03T17:28:12.537Z,16.60
2018-05-03T17:30:39.976Z,16.60
2018-05-03T17:33:07.423Z,16.60
2018-05-03T17:35:34.908Z,16.50
2018-05-03T17:38:02.455Z,16.40
2018-05-03T17:40:29.910Z,16.20
2018-05-03T17:42:57.401Z,16.10
2018-05-03T17:45:24.859Z,16.10
2018-05-03T17:47:52.323Z,16.00
2018-05-03T17:50:19.735Z,15.90
2018-05-03T17:52:47.216Z,15.90
2018-05-03T17:55:14.774Z,15.90
2018-05-03T17:57:42.367Z,15.80
2018-05-03T18:00:10.585Z,15.70
2018-05-03T18:02:38.030Z,15.60
2018-05-03T18:05:05.519Z,15.50
2018-05-03T18:07:32.958Z,15.40
2018-05-03T18:10:00.400Z,15.40
2018-05-03T18:12:27.896Z,15.30
2018-05-03T18:14:55.392Z,15.30
2018-05-03T18:17:23.739Z,15.20
2018-05-03T18:19:51.189Z,15.20
2018-05-03T18:22:18.655Z,15.20
2018-05-03T18:24:46.872Z,15.00
2018-05-03T18:27:14.310Z,15.00
2018-05-03T18:29:41.745Z,14.90
2018-05-03T18:32:09.387Z,14.80
2018-05-03T18:34:37.581Z,14.80
2018-05-03T18:37:05.021Z,14.80
2018-05-03T18:39:33.215Z,14.70
2018-05-03T18:42:00.652Z,14.60
2018-05-03T18:44:28.113Z,14.60
2018-05-03T18:46:55.599Z,14.50
2018-05-03T18:49:23.333Z,14.40
2018-05-03T18:51:50.795Z,14.30
2018-05-03T18:54:18.237Z,14.20
2018-05-03T18:56:46.437Z,14.10
2018-05-03T18:59:13.910Z,14.10
2018-05-03T19:01:41.404Z,14.10
2018-05-03T19:04:08.850Z,14.00
2018-05-03T19:06:36.384Z,13.90
2018-05-03T19:09:03.878Z,13.80
2018-05-03T19:11:31.596Z,13.70
2018-05-03T19:13:58.931Z,13.60
2018-05-03T19:16:26.377Z,13.60
2018-05-03T19:18:53.823Z,13.40
2018-05-03T19:21:22.038Z,13.20
2018-05-03T19:23:49.593Z,13.20
2018-05-03T19:26:16.955Z,13.20
2018-05-03T19:28:44.447Z,13.10
2018-05-03T19:31:11.903Z,13.10
2018-05-03T19:33:39.331Z,13.00
2018-05-03T19:36:06.772Z,13.00
2018-05-03T19:38:34.244Z,12.90
2018-05-03T19:41:01.680Z,12.90
2018-05-03T19:43:29.202Z,12.80
2018-05-03T19:45:56.614Z,12.80
2018-05-03T19:48:24.054Z,12.60
2018-05-03T19:50:51.754Z,12.50
2018-05-03T19:53:19.199Z,12.50
2018-05-03T19:55:46.650Z,12.50
2018-05-03T19:58:14.215Z,12.50
2018-05-03T20:00:41.665Z,12.60
2018-05-03T20:03:09.328Z,12.60
2018-05-03T20:05:36.761Z,12.60
2018-05-03T20:08:04.210Z,12.50
2018-05-03T20:10:32.435Z,12.30
2018-05-03T20:12:59.877Z,12.40
2018-05-03T20:15:27.324Z,12.30
2018-05-03T20:17:54.789Z,12.30
2018-05-03T20:20:22.227Z,12.30
2018-05-03T20:22:49.675Z,12.20
2018-05-03T20:25:17.104Z,12.10
2018-05-03T20:27:45.305Z,12.00
2018-05-03T20:30:13.503Z,12.00
2018-05-03T20:32:40.961Z,12.00
2018-05-03T20:35:08.372Z,11.90
2018-05-03T20:37:36.599Z,11.80
2018-05-03T20:40:04.048Z,11.80
2018-05-03T20:42:31.464Z,11.80
2018-05-03T20:44:59.711Z,11.70
2018-05-03T20:47:27.143Z,11.60
2018-05-03T20:49:54.591Z,11.60
2018-05-03T20:52:22.088Z,11.60
2018-05-03T20:54:49.511Z,11.50
2018-05-03T20:57:16.980Z,11.40
2018-05-03T20:59:44.540Z,11.20
2018-05-03T21:02:11.977Z,11.10
2018-05-03T21:04:39.412Z,11.00
2018-05-03T21:07:07.697Z,10.70
2018-05-03T21:09:35.072Z,10.70
2018-05-03T21:12:02.503Z,10.60
2018-05-03T21:14:29.957Z,10.50
2018-05-03T21:16:58.157Z,10.40
2018-05-03T21:19:25.624Z,10.40
2018-05-03T21:21:53.048Z,10.30
2018-05-03T21:24:20.551Z,10.10
2018-05-03T21:26:47.972Z,10.00
2018-05-03T21:29:15.467Z,9.90
2018-05-03T21:31:42.907Z,10.00
2018-05-03T21:34:10.336Z,9.90
2018-05-03T21:36:37.779Z,9.80
2018-05-03T21:39:06.007Z,9.70
2018-05-03T21:41:33.428Z,9.70
2018-05-03T21:44:00.911Z,9.70
2018-05-03T21:46:28.336Z,9.70
2018-05-03T21:48:56.535Z,9.70
2018-05-03T21:51:23.994Z,9.60
2018-05-03T21:53:51.494Z,9.60
2018-05-03T21:58:44.747Z,9.20
2018-05-03T22:01:12.190Z,9.10
2018-05-03T22:03:39.715Z,9.00
2018-05-03T22:06:07.925Z,8.90
2018-05-03T22:08:35.384Z,8.90
2018-05-03T22:11:02.790Z,9.00
2018-05-03T22:13:31.021Z,9.00
2018-05-03T22:15:58.483Z,8.90
2018-05-03T22:18:25.915Z,8.90
2018-05-03T22:20:53.358Z,8.80
2018-05-03T22:23:20.795Z,8.60
2018-05-03T22:25:48.307Z,8.60
2018-05-03T22:28:15.744Z,8.50
2018-05-03T22:30:43.209Z,8.50
2018-05-03T22:33:10.624Z,8.40
2018-05-03T22:35:38.820Z,8.50
2018-05-03T22:38:06.257Z,8.50
2018-05-03T22:40:33.754Z,8.50
2018-05-03T22:43:01.216Z,8.50
2018-05-03T22:45:28.671Z,8.40
2018-05-03T22:47:56.099Z,8.40
2018-05-03T22:50:23.667Z,8.40
2018-05-03T22:52:51.148Z,8.40
2018-05-03T22:55:18.727Z,8.40
2018-05-03T22:57:46.176Z,8.40
2018-05-03T23:00:13.725Z,8.30
2018-05-03T23:02:41.144Z,8.30
2018-05-03T23:05:09.357Z,8.10
2018-05-03T23:07:36.791Z,8.00
2018-05-03T23:10:04.235Z,8.00
2018-05-03T23:12:32.440Z,7.90
2018-05-03T23:14:59.871Z,7.90
2018-05-03T23:17:27.309Z,7.70
2018-05-03T23:19:55.511Z,7.60
2018-05-03T23:22:22.992Z,7.60
2018-05-03T23:24:50.426Z,7.60
2018-05-03T23:27:17.885Z,7.60
2018-05-03T23:29:45.306Z,7.60
2018-05-03T23:32:12.831Z,7.50
2018-05-03T23:34:40.259Z,7.40
2018-05-03T23:37:07.696Z,7.30
2018-05-03T23:39:35.880Z,7.20
2018-05-03T23:42:03.368Z,7.20
2018-05-03T23:44:30.807Z,7.10
2018-05-03T23:46:58.236Z,7.20
2018-05-03T23:49:26.435Z,7.20
2018-05-03T23:51:53.864Z,7.20
2018-05-03T23:54:22.079Z,7.20
2018-05-03T23:56:49.507Z,7.20
2018-05-03T23:59:17.709Z,7.10
